sensor_id;sensor_type;location;lat;lon;timestamp;temperature;humidity
20858;DHT22;10589;53.636;10.012;2022-10-16T03:46:29;12.70;99.90
20858;DHT22;10589;53.636;10.012;2022-10-16T03:48:55;12.70;99.90
20858;DHT22;10589;53.636;10.012;2022-10-16T03:51:20;12.70;99.90
20858;DHT22;10589;53.636;10.012;2022-10-16T03:53:46;12.60;99.90
20858;DHT22;10589;53.636;10.012;2022-10-16T03:56:12;12.70;99.90
20858;DHT22;10589;53.636;10.012;2022-10-16T03:58:37;12.70;99.90
20858;DHT22;10589;53.636;10.012;2022-10-16T04:01:03;12.80;99.90
20858;DHT22;10589;53.636;10.012;2022-10-16T04:03:28;12.70;99.90
20858;DHT22;10589;53.636;10.012;2022-10-16T04:05:54;12.70;99.90
20858;DHT22;10589;53.636;10.012;2022-10-16T04:08:20;12.70;99.90
20858;DHT22;10589;53.636;10.012;2022-10-16T04:10:46;12.70;99.90
20858;DHT22;10589;53.636;10.012;2022-10-16T04:13:12;12.80;99.90
20858;DHT22;10589;53.636;10.012;2022-10-16T04:15:38;12.80;99.90
20858;DHT22;10589;53.636;10.012;2022-10-16T04:18:05;12.80;99.90
20858;DHT22;10589;53.636;10.012;2022-10-16T04:20:30;12.90;99.90
20858;DHT22;10589;53.636;10.012;2022-10-16T04:22:56;12.90;99.90
20858;DHT22;10589;53.636;10.012;2022-10-16T04:25:22;12.80;99.90
20858;DHT22;10589;53.636;10.012;2022-10-16T04:27:47;12.80;99.90
20858;DHT22;10589;53.636;10.012;2022-10-16T04:30:13;12.80;99.90
20858;DHT22;10589;53.636;10.012;2022-10-16T04:32:39;12.80;99.90
20858;DHT22;10589;53.636;10.012;2022-10-16T04:35:05;12.90;99.90
20858;DHT22;10589;53.636;10.012;2022-10-16T04:37:31;12.90;99.90
20858;DHT22;10589;53.636;10.012;2022-10-16T04:39:57;13.00;99.90
20858;DHT22;10589;53.636;10.012;2022-10-16T04:42:23;12.90;99.90
20858;DHT22;10589;53.636;10.012;2022-10-16T04:44:48;12.80;99.90
20858;DHT22;10589;53.636;10.012;2022-10-16T04:47:14;12.80;99.90
20858;DHT22;10589;53.636;10.012;2022-10-16T04:49:40;12.70;99.90
20858;DHT22;10589;53.636;10.012;2022-10-16T04:52:05;12.60;99.90
20858;DHT22;10589;53.636;10.012;2022-10-16T04:54:31;12.60;99.90
20858;DHT22;10589;53.636;10.012;2022-10-16T04:56:57;12.70;99.90
20858;DHT22;10589;53.636;10.012;2022-10-16T04:59:23;12.70;99.90
20858;DHT22;10589;53.636;10.012;2022-10-16T05:01:48;12.60;99.90
20858;DHT22;10589;53.636;10.012;2022-10-16T05:04:15;12.60;99.90
20858;DHT22;10589;53.636;10.012;2022-10-16T05:06:41;12.70;99.90
20858;DHT22;10589;53.636;10.012;2022-10-16T05:09:07;12.70;99.90
20858;DHT22;10589;53.636;10.012;2022-10-16T05:11:33;12.70;99.90
20858;DHT22;10589;53.636;10.012;2022-10-16T05:13:59;12.70;99.90
20858;DHT22;10589;53.636;10.012;2022-10-16T05:16:25;12.60;99.90
20858;DHT22;10589;53.636;10.012;2022-10-16T05:18:54;12.60;99.90
20858;DHT22;10589;53.636;10.012;2022-10-16T05:21:20;12.60;99.90
20858;DHT22;10589;53.636;10.012;2022-10-16T05:23:46;12.60;99.90
20858;DHT22;10589;53.636;10.012;2022-10-16T05:26:11;12.60;99.90
20858;DHT22;10589;53.636;10.012;2022-10-16T05:28:37;12.60;99.90
20858;DHT22;10589;53.636;10.012;2022-10-16T05:31:06;12.60;99.90
20858;DHT22;10589;53.636;10.012;2022-10-16T05:33:32;12.60;99.90
20858;DHT22;10589;53.636;10.012;2022-10-16T05:36:08;12.60;99.90
20858;DHT22;10589;53.636;10.012;2022-10-16T05:38:35;12.60;99.90
20858;DHT22;10589;53.636;10.012;2022-10-16T05:41:01;12.70;99.90
20858;DHT22;10589;53.636;10.012;2022-10-16T05:43:28;12.70;99.90
20858;DHT22;10589;53.636;10.012;2022-10-16T05:45:58;12.80;99.90
20858;DHT22;10589;53.636;10.012;2022-10-16T05:48:25;12.80;99.90
20858;DHT22;10589;53.636;10.012;2022-10-16T05:51:07;12.80;99.90
20858;DHT22;10589;53.636;10.012;2022-10-16T05:53:35;12.80;99.90
20858;DHT22;10589;53.636;10.012;2022-10-16T05:56:01;12.80;99.90
20858;DHT22;10589;53.636;10.012;2022-10-16T05:58:32;12.80;99.90
20858;DHT22;10589;53.636;10.012;2022-10-16T06:01:07;12.80;99.90
20858;DHT22;10589;53.636;10.012;2022-10-16T06:03:34;12.80;99.90
20858;DHT22;10589;53.636;10.012;2022-10-16T06:06:17;12.80;99.90
20858;DHT22;10589;53.636;10.012;2022-10-16T06:08:43;12.90;99.90
20858;DHT22;10589;53.636;10.012;2022-10-16T06:11:15;12.90;99.90
20858;DHT22;10589;53.636;10.012;2022-10-16T06:13:41;13.00;99.90
20858;DHT22;10589;53.636;10.012;2022-10-16T06:16:08;13.00;99.90
20858;DHT22;10589;53.636;10.012;2022-10-16T06:18:34;13.10;99.90
20858;DHT22;10589;53.636;10.012;2022-10-16T06:21:06;13.10;99.90
20858;DHT22;10589;53.636;10.012;2022-10-16T06:23:31;13.10;99.90
20858;DHT22;10589;53.636;10.012;2022-10-16T06:26:10;13.10;99.90
20858;DHT22;10589;53.636;10.012;2022-10-16T06:28:37;13.20;99.90
20858;DHT22;10589;53.636;10.012;2022-10-16T06:31:03;13.20;99.90
20858;DHT22;10589;53.636;10.012;2022-10-16T06:33:29;13.20;99.90
20858;DHT22;10589;53.636;10.012;2022-10-16T06:36:03;13.20;99.90
20858;DHT22;10589;53.636;10.012;2022-10-16T06:38:29;13.20;99.90
20858;DHT22;10589;53.636;10.012;2022-10-16T06:40:55;13.20;99.90
20858;DHT22;10589;53.636;10.012;2022-10-16T06:43:21;13.30;99.90
20858;DHT22;10589;53.636;10.012;2022-10-16T06:45:56;13.30;99.90
20858;DHT22;10589;53.636;10.012;2022-10-16T06:48:23;13.30;99.90
20858;DHT22;10589;53.636;10.012;2022-10-16T06:51:13;13.30;99.90
20858;DHT22;10589;53.636;10.012;2022-10-16T06:53:41;13.30;99.90
20858;DHT22;10589;53.636;10.012;2022-10-16T06:56:12;13.30;99.90
20858;DHT22;10589;53.636;10.012;2022-10-16T06:58:39;13.40;99.90
20858;DHT22;10589;53.636;10.012;2022-10-16T07:01:06;13.50;99.90
20858;DHT22;10589;53.636;10.012;2022-10-16T07:03:32;13.70;99.90
20858;DHT22;10589;53.636;10.012;2022-10-16T07:06:02;13.90;99.90
20858;DHT22;10589;53.636;10.012;2022-10-16T07:08:33;14.00;99.90
20858;DHT22;10589;53.636;10.012;2022-10-16T07:11:05;14.20;99.90
20858;DHT22;10589;53.636;10.012;2022-10-16T07:13:35;14.30;99.90
20858;DHT22;10589;53.636;10.012;2022-10-16T07:16:10;14.40;99.90
20858;DHT22;10589;53.636;10.012;2022-10-16T07:18:36;14.50;99.90
20858;DHT22;10589;53.636;10.012;2022-10-16T07:21:23;14.50;99.90
20858;DHT22;10589;53.636;10.012;2022-10-16T07:23:51;14.60;99.90
20858;DHT22;10589;53.636;10.012;2022-10-16T07:26:17;14.60;99.90
20858;DHT22;10589;53.636;10.012;2022-10-16T07:28:43;14.60;99.90
20858;DHT22;10589;53.636;10.012;2022-10-16T07:31:13;14.60;99.90
20858;DHT22;10589;53.636;10.012;2022-10-16T07:33:41;14.60;99.90
20858;DHT22;10589;53.636;10.012;2022-10-16T07:36:08;14.70;99.90
20858;DHT22;10589;53.636;10.012;2022-10-16T07:38:34;14.60;99.90
20858;DHT22;10589;53.636;10.012;2022-10-16T07:41:02;14.70;99.90
20858;DHT22;10589;53.636;10.012;2022-10-16T07:43:29;14.70;99.90
20858;DHT22;10589;53.636;10.012;2022-10-16T07:45:54;14.80;99.90
20858;DHT22;10589;53.636;10.012;2022-10-16T07:48:21;14.90;99.90
20858;DHT22;10589;53.636;10.012;2022-10-16T07:50:47;15.00;99.90
20858;DHT22;10589;53.636;10.012;2022-10-16T07:53:13;15.00;99.90
20858;DHT22;10589;53.636;10.012;2022-10-16T07:55:39;15.20;99.90
20858;DHT22;10589;53.636;10.012;2022-10-16T07:58:05;15.20;99.90
20858;DHT22;10589;53.636;10.012;2022-10-16T08:00:31;15.10;99.90
20858;DHT22;10589;53.636;10.012;2022-10-16T08:02:58;15.10;99.90
20858;DHT22;10589;53.636;10.012;2022-10-16T08:05:26;15.10;99.90
20858;DHT22;10589;53.636;10.012;2022-10-16T08:07:52;15.10;99.90
20858;DHT22;10589;53.636;10.012;2022-10-16T08:10:21;15.00;99.90
20858;DHT22;10589;53.636;10.012;2022-10-16T08:12:47;15.00;99.90
20858;DHT22;10589;53.636;10.012;2022-10-16T08:15:12;14.90;99.90
20858;DHT22;10589;53.636;10.012;2022-10-16T08:17:38;14.80;99.90
20858;DHT22;10589;53.636;10.012;2022-10-16T08:20:04;14.90;99.90
20858;DHT22;10589;53.636;10.012;2022-10-16T08:22:30;15.00;99.90
20858;DHT22;10589;53.636;10.012;2022-10-16T08:24:55;15.10;99.90
20858;DHT22;10589;53.636;10.012;2022-10-16T08:27:21;15.10;99.90
20858;DHT22;10589;53.636;10.012;2022-10-16T08:29:48;15.10;99.90
20858;DHT22;10589;53.636;10.012;2022-10-16T08:32:14;15.20;99.90
20858;DHT22;10589;53.636;10.012;2022-10-16T08:34:40;15.40;99.90
20858;DHT22;10589;53.636;10.012;2022-10-16T08:37:05;15.40;99.90
20858;DHT22;10589;53.636;10.012;2022-10-16T08:39:33;15.50;99.90
20858;DHT22;10589;53.636;10.012;2022-10-16T08:47:18;15.30;99.90
20858;DHT22;10589;53.636;10.012;2022-10-16T08:50:02;15.30;99.90
20858;DHT22;10589;53.636;10.012;2022-10-16T08:52:35;15.30;99.90
20858;DHT22;10589;53.636;10.012;2022-10-16T08:55:04;15.20;99.90
20858;DHT22;10589;53.636;10.012;2022-10-16T08:57:30;15.10;99.90
20858;DHT22;10589;53.636;10.012;2022-10-16T09:00:00;15.10;99.90
20858;DHT22;10589;53.636;10.012;2022-10-16T09:08:04;15.80;99.90
20858;DHT22;10589;53.636;10.012;2022-10-16T09:13:26;16.10;99.90
20858;DHT22;10589;53.636;10.012;2022-10-16T09:21:24;16.40;99.90
20858;DHT22;10589;53.636;10.012;2022-10-16T09:23:51;16.70;99.90
20858;DHT22;10589;53.636;10.012;2022-10-16T09:26:17;16.80;99.90
20858;DHT22;10589;53.636;10.012;2022-10-16T09:28:44;16.80;99.90
20858;DHT22;10589;53.636;10.012;2022-10-16T09:31:21;16.60;99.90
20858;DHT22;10589;53.636;10.012;2022-10-16T09:33:54;16.50;99.90
20858;DHT22;10589;53.636;10.012;2022-10-16T09:36:21;16.40;99.90
20858;DHT22;10589;53.636;10.012;2022-10-16T09:38:49;16.40;99.90
20858;DHT22;10589;53.636;10.012;2022-10-16T09:41:21;16.50;99.90
20858;DHT22;10589;53.636;10.012;2022-10-16T09:43:55;16.70;99.90
20858;DHT22;10589;53.636;10.012;2022-10-16T09:46:24;16.80;99.90
20858;DHT22;10589;53.636;10.012;2022-10-16T09:48:53;16.90;99.90
20858;DHT22;10589;53.636;10.012;2022-10-16T09:51:36;17.00;99.90
20858;DHT22;10589;53.636;10.012;2022-10-16T09:54:12;17.30;99.90
20858;DHT22;10589;53.636;10.012;2022-10-16T09:56:39;17.30;99.90
20858;DHT22;10589;53.636;10.012;2022-10-16T09:59:14;17.50;99.90
20858;DHT22;10589;53.636;10.012;2022-10-16T10:01:40;17.60;99.90
20858;DHT22;10589;53.636;10.012;2022-10-16T10:04:07;17.60;99.90
20858;DHT22;10589;53.636;10.012;2022-10-16T10:06:46;17.60;99.90
20858;DHT22;10589;53.636;10.012;2022-10-16T10:17:27;17.90;99.90
20858;DHT22;10589;53.636;10.012;2022-10-16T10:31:01;18.00;99.90
20858;DHT22;10589;53.636;10.012;2022-10-16T10:37:02;18.10;99.90
20858;DHT22;10589;53.636;10.012;2022-10-16T10:39:48;18.10;99.90
20858;DHT22;10589;53.636;10.012;2022-10-16T10:53:01;18.30;99.90
20858;DHT22;10589;53.636;10.012;2022-10-16T10:55:49;18.50;99.90
20858;DHT22;10589;53.636;10.012;2022-10-16T11:04:09;18.50;99.90
20858;DHT22;10589;53.636;10.012;2022-10-16T11:09:30;18.50;99.90
20858;DHT22;10589;53.636;10.012;2022-10-16T11:12:02;18.50;99.90
20858;DHT22;10589;53.636;10.012;2022-10-16T11:14:48;18.50;99.90
20858;DHT22;10589;53.636;10.012;2022-10-16T11:17:23;18.50;99.90
20858;DHT22;10589;53.636;10.012;2022-10-16T11:19:56;18.60;99.90
20858;DHT22;10589;53.636;10.012;2022-10-16T11:22:37;18.60;99.90
20858;DHT22;10589;53.636;10.012;2022-10-16T11:25:18;18.80;99.90
20858;DHT22;10589;53.636;10.012;2022-10-16T11:30:20;19.00;99.90
20858;DHT22;10589;53.636;10.012;2022-10-16T11:35:55;19.10;99.90
20858;DHT22;10589;53.636;10.012;2022-10-16T11:38:30;19.00;99.90
20858;DHT22;10589;53.636;10.012;2022-10-16T11:41:09;19.00;99.90
20858;DHT22;10589;53.636;10.012;2022-10-16T11:43:45;19.20;99.90
20858;DHT22;10589;53.636;10.012;2022-10-16T11:46:20;19.10;99.90
20858;DHT22;10589;53.636;10.012;2022-10-16T11:49:18;19.00;99.90
20858;DHT22;10589;53.636;10.012;2022-10-16T11:54:43;19.40;99.90
20858;DHT22;10589;53.636;10.012;2022-10-16T11:57:24;19.50;99.90
20858;DHT22;10589;53.636;10.012;2022-10-16T12:00:04;19.20;99.90
20858;DHT22;10589;53.636;10.012;2022-10-16T12:05:15;19.00;99.90
20858;DHT22;10589;53.636;10.012;2022-10-16T12:08:01;19.00;99.90
20858;DHT22;10589;53.636;10.012;2022-10-16T12:10:30;19.10;99.90
20858;DHT22;10589;53.636;10.012;2022-10-16T12:13:03;19.10;99.90
20858;DHT22;10589;53.636;10.012;2022-10-16T12:15:31;19.20;99.90
20858;DHT22;10589;53.636;10.012;2022-10-16T12:17:58;19.30;99.90
20858;DHT22;10589;53.636;10.012;2022-10-16T12:20:29;19.20;99.90
20858;DHT22;10589;53.636;10.012;2022-10-16T12:23:02;19.30;99.90
20858;DHT22;10589;53.636;10.012;2022-10-16T12:25:39;19.40;99.90
20858;DHT22;10589;53.636;10.012;2022-10-16T12:30:41;19.70;99.90
20858;DHT22;10589;53.636;10.012;2022-10-16T12:35:49;19.90;99.90
20858;DHT22;10589;53.636;10.012;2022-10-16T12:48:36;20.00;99.90
20858;DHT22;10589;53.636;10.012;2022-10-16T12:51:12;20.40;99.90
20858;DHT22;10589;53.636;10.012;2022-10-16T12:53:46;20.40;99.90
20858;DHT22;10589;53.636;10.012;2022-10-16T12:59:25;19.80;99.90
20858;DHT22;10589;53.636;10.012;2022-10-16T13:10:41;21.20;99.90
20858;DHT22;10589;53.636;10.012;2022-10-16T13:19:24;25.50;99.90
20858;DHT22;10589;53.636;10.012;2022-10-16T13:27:41;27.10;98.20
20858;DHT22;10589;53.636;10.012;2022-10-16T13:30:24;26.50;99.90
20858;DHT22;10589;53.636;10.012;2022-10-16T13:33:02;26.90;97.00
20858;DHT22;10589;53.636;10.012;2022-10-16T13:35:31;25.50;96.90
20858;DHT22;10589;53.636;10.012;2022-10-16T13:38:26;25.70;97.20
20858;DHT22;10589;53.636;10.012;2022-10-16T13:40:59;26.50;97.10
20858;DHT22;10589;53.636;10.012;2022-10-16T13:43:32;26.70;95.90
20858;DHT22;10589;53.636;10.012;2022-10-16T13:46:10;26.70;96.00
20858;DHT22;10589;53.636;10.012;2022-10-16T13:48:36;26.70;95.70
20858;DHT22;10589;53.636;10.012;2022-10-16T13:51:20;26.90;95.10
20858;DHT22;10589;53.636;10.012;2022-10-16T13:53:46;26.90;94.80
20858;DHT22;10589;53.636;10.012;2022-10-16T13:56:14;27.20;94.40
20858;DHT22;10589;53.636;10.012;2022-10-16T13:58:40;26.60;93.60
20858;DHT22;10589;53.636;10.012;2022-10-16T14:01:20;25.00;95.00
20858;DHT22;10589;53.636;10.012;2022-10-16T14:03:49;23.90;97.20
20858;DHT22;10589;53.636;10.012;2022-10-16T14:06:18;23.60;98.50
20858;DHT22;10589;53.636;10.012;2022-10-16T14:08:50;23.90;99.50
20858;DHT22;10589;53.636;10.012;2022-10-16T14:11:22;24.90;96.90
20858;DHT22;10589;53.636;10.012;2022-10-16T14:13:50;25.80;95.90
20858;DHT22;10589;53.636;10.012;2022-10-16T14:16:25;26.40;94.50
20858;DHT22;10589;53.636;10.012;2022-10-16T14:19:02;26.70;94.10
20858;DHT22;10589;53.636;10.012;2022-10-16T14:21:29;26.60;93.40
20858;DHT22;10589;53.636;10.012;2022-10-16T14:23:55;26.30;93.70
20858;DHT22;10589;53.636;10.012;2022-10-16T14:26:24;25.40;93.90
20858;DHT22;10589;53.636;10.012;2022-10-16T14:29:10;24.40;95.30
20858;DHT22;10589;53.636;10.012;2022-10-16T14:31:36;24.00;95.70
20858;DHT22;10589;53.636;10.012;2022-10-16T14:34:02;23.20;97.30
20858;DHT22;10589;53.636;10.012;2022-10-16T14:36:29;23.40;97.90
20858;DHT22;10589;53.636;10.012;2022-10-16T14:41:24;24.80;96.00
20858;DHT22;10589;53.636;10.012;2022-10-16T14:43:55;25.50;95.70
20858;DHT22;10589;53.636;10.012;2022-10-16T14:46:34;25.80;94.50
20858;DHT22;10589;53.636;10.012;2022-10-16T14:49:05;25.70;94.50
20858;DHT22;10589;53.636;10.012;2022-10-16T14:51:39;25.50;94.40
20858;DHT22;10589;53.636;10.012;2022-10-16T14:54:08;24.80;94.80
20858;DHT22;10589;53.636;10.012;2022-10-16T14:59:26;22.50;97.80
20858;DHT22;10589;53.636;10.012;2022-10-16T15:01:53;21.40;99.80
20858;DHT22;10589;53.636;10.012;2022-10-16T15:04:19;20.60;99.90
20858;DHT22;10589;53.636;10.012;2022-10-16T15:06:44;20.10;99.90
20858;DHT22;10589;53.636;10.012;2022-10-16T15:09:10;19.60;99.90
20858;DHT22;10589;53.636;10.012;2022-10-16T15:11:36;19.10;99.90
20858;DHT22;10589;53.636;10.012;2022-10-16T15:14:02;18.80;99.90
20858;DHT22;10589;53.636;10.012;2022-10-16T15:16:29;18.50;99.90
20858;DHT22;10589;53.636;10.012;2022-10-16T15:18:55;18.40;99.90
20858;DHT22;10589;53.636;10.012;2022-10-16T15:21:29;18.30;99.90
20858;DHT22;10589;53.636;10.012;2022-10-16T15:23:56;18.10;99.90
20858;DHT22;10589;53.636;10.012;2022-10-16T15:26:24;18.00;99.90
20858;DHT22;10589;53.636;10.012;2022-10-16T15:28:49;18.00;99.90
20858;DHT22;10589;53.636;10.012;2022-10-16T15:31:15;17.90;99.90
20858;DHT22;10589;53.636;10.012;2022-10-16T15:33:41;17.80;99.90
20858;DHT22;10589;53.636;10.012;2022-10-16T15:36:06;17.70;99.90
20858;DHT22;10589;53.636;10.012;2022-10-16T15:38:32;17.60;99.90
20858;DHT22;10589;53.636;10.012;2022-10-16T15:40:57;17.40;99.90
20858;DHT22;10589;53.636;10.012;2022-10-16T15:43:23;17.40;99.90
20858;DHT22;10589;53.636;10.012;2022-10-16T15:46:03;17.30;99.90
20858;DHT22;10589;53.636;10.012;2022-10-16T15:48:31;17.20;99.90
20858;DHT22;10589;53.636;10.012;2022-10-16T15:50:57;17.10;99.90
20858;DHT22;10589;53.636;10.012;2022-10-16T15:53:23;17.00;99.90
20858;DHT22;10589;53.636;10.012;2022-10-16T15:55:48;16.80;99.90
20858;DHT22;10589;53.636;10.012;2022-10-16T15:58:14;16.60;99.90
20858;DHT22;10589;53.636;10.012;2022-10-16T16:00:40;16.40;99.90
20858;DHT22;10589;53.636;10.012;2022-10-16T16:03:05;16.20;99.90
20858;DHT22;10589;53.636;10.012;2022-10-16T16:05:31;16.00;99.90
20858;DHT22;10589;53.636;10.012;2022-10-16T16:07:59;15.80;99.90
20858;DHT22;10589;53.636;10.012;2022-10-16T16:10:24;15.60;99.90
20858;DHT22;10589;53.636;10.012;2022-10-16T16:12:50;15.50;99.90
20858;DHT22;10589;53.636;10.012;2022-10-16T16:15:20;15.50;99.90
20858;DHT22;10589;53.636;10.012;2022-10-16T16:17:46;15.30;99.90
20858;DHT22;10589;53.636;10.012;2022-10-16T16:20:12;15.20;99.90
20858;DHT22;10589;53.636;10.012;2022-10-16T16:22:37;15.00;99.90
20858;DHT22;10589;53.636;10.012;2022-10-16T16:25:03;14.80;99.90
20858;DHT22;10589;53.636;10.012;2022-10-16T16:27:29;14.70;99.90
20858;DHT22;10589;53.636;10.012;2022-10-16T16:29:58;14.60;99.90
20858;DHT22;10589;53.636;10.012;2022-10-16T16:32:23;14.40;99.90
20858;DHT22;10589;53.636;10.012;2022-10-16T16:34:50;14.40;99.90
20858;DHT22;10589;53.636;10.012;2022-10-16T16:37:15;14.20;99.90
20858;DHT22;10589;53.636;10.012;2022-10-16T16:39:41;14.10;99.90
20858;DHT22;10589;53.636;10.012;2022-10-16T16:42:06;14.10;99.90
20858;DHT22;10589;53.636;10.012;2022-10-16T16:44:33;14.00;99.90
20858;DHT22;10589;53.636;10.012;2022-10-16T16:47:01;14.00;99.90
20858;DHT22;10589;53.636;10.012;2022-10-16T16:49:27;14.00;99.90
20858;DHT22;10589;53.636;10.012;2022-10-16T16:51:53;14.00;99.90
20858;DHT22;10589;53.636;10.012;2022-10-16T16:54:19;14.10;99.90
20858;DHT22;10589;53.636;10.012;2022-10-16T16:56:45;14.00;99.90
20858;DHT22;10589;53.636;10.012;2022-10-16T16:59:16;13.90;99.90
20858;DHT22;10589;53.636;10.012;2022-10-16T17:01:44;13.80;99.90
20858;DHT22;10589;53.636;10.012;2022-10-16T17:04:10;13.70;99.90
20858;DHT22;10589;53.636;10.012;2022-10-16T17:06:36;13.60;99.90
20858;DHT22;10589;53.636;10.012;2022-10-16T17:09:04;13.50;99.90
20858;DHT22;10589;53.636;10.012;2022-10-16T17:11:30;13.50;99.90
20858;DHT22;10589;53.636;10.012;2022-10-16T17:13:58;13.40;99.90
20858;DHT22;10589;53.636;10.012;2022-10-16T17:16:32;13.30;99.90
20858;DHT22;10589;53.636;10.012;2022-10-16T17:19:09;13.30;99.90
20858;DHT22;10589;53.636;10.012;2022-10-16T17:21:36;13.30;99.90
20858;DHT22;10589;53.636;10.012;2022-10-16T17:24:03;13.30;99.90
20858;DHT22;10589;53.636;10.012;2022-10-16T17:26:29;13.20;99.90
20858;DHT22;10589;53.636;10.012;2022-10-16T17:28:57;13.10;99.90
20858;DHT22;10589;53.636;10.012;2022-10-16T17:31:26;13.00;99.90
20858;DHT22;10589;53.636;10.012;2022-10-16T17:33:52;13.00;99.90
20858;DHT22;10589;53.636;10.012;2022-10-16T17:36:19;12.90;99.90
20858;DHT22;10589;53.636;10.012;2022-10-16T17:38:45;12.90;99.90
20858;DHT22;10589;53.636;10.012;2022-10-16T17:41:17;12.70;99.90
20858;DHT22;10589;53.636;10.012;2022-10-16T17:43:43;12.60;99.90
20858;DHT22;10589;53.636;10.012;2022-10-16T17:46:12;12.60;99.90
20858;DHT22;10589;53.636;10.012;2022-10-16T17:48:43;12.50;99.90
20858;DHT22;10589;53.636;10.012;2022-10-16T17:51:11;12.40;99.90
20858;DHT22;10589;53.636;10.012;2022-10-16T17:53:38;12.30;99.90
20858;DHT22;10589;53.636;10.012;2022-10-16T17:56:09;12.20;99.90
20858;DHT22;10589;53.636;10.012;2022-10-16T17:58:35;12.20;99.90
20858;DHT22;10589;53.636;10.012;2022-10-16T18:01:01;12.10;99.90
20858;DHT22;10589;53.636;10.012;2022-10-16T18:03:27;12.00;99.90
20858;DHT22;10589;53.636;10.012;2022-10-16T18:05:54;11.90;99.90
20858;DHT22;10589;53.636;10.012;2022-10-16T18:08:21;11.90;99.90
20858;DHT22;10589;53.636;10.012;2022-10-16T18:10:49;11.80;99.90
20858;DHT22;10589;53.636;10.012;2022-10-16T18:13:16;11.80;99.90
20858;DHT22;10589;53.636;10.012;2022-10-16T18:15:42;11.70;99.90
20858;DHT22;10589;53.636;10.012;2022-10-16T18:18:08;11.60;99.90
20858;DHT22;10589;53.636;10.012;2022-10-16T18:20:34;11.50;99.90
20858;DHT22;10589;53.636;10.012;2022-10-16T18:22:59;11.50;99.90
20858;DHT22;10589;53.636;10.012;2022-10-16T18:25:25;11.40;99.90
20858;DHT22;10589;53.636;10.012;2022-10-16T18:27:51;11.40;99.90
20858;DHT22;10589;53.636;10.012;2022-10-16T18:30:16;11.40;99.90
20858;DHT22;10589;53.636;10.012;2022-10-16T18:32:42;11.40;99.90
20858;DHT22;10589;53.636;10.012;2022-10-16T18:35:08;11.30;99.90
20858;DHT22;10589;53.636;10.012;2022-10-16T18:37:34;11.30;99.90
20858;DHT22;10589;53.636;10.012;2022-10-16T18:40:01;11.20;99.90
20858;DHT22;10589;53.636;10.012;2022-10-16T18:42:26;11.10;99.90
20858;DHT22;10589;53.636;10.012;2022-10-16T18:44:52;11.20;99.90
20858;DHT22;10589;53.636;10.012;2022-10-16T18:47:17;11.20;99.90
20858;DHT22;10589;53.636;10.012;2022-10-16T18:49:43;11.20;99.90
20858;DHT22;10589;53.636;10.012;2022-10-16T18:52:11;11.20;99.90
20858;DHT22;10589;53.636;10.012;2022-10-16T18:54:36;11.10;99.90
20858;DHT22;10589;53.636;10.012;2022-10-16T18:57:02;11.10;99.90
20858;DHT22;10589;53.636;10.012;2022-10-16T18:59:28;11.10;99.90
20858;DHT22;10589;53.636;10.012;2022-10-16T19:01:54;11.10;99.90
20858;DHT22;10589;53.636;10.012;2022-10-16T19:04:20;11.10;99.90
20858;DHT22;10589;53.636;10.012;2022-10-16T19:06:49;11.10;99.90
20858;DHT22;10589;53.636;10.012;2022-10-16T19:09:18;11.10;99.90
20858;DHT22;10589;53.636;10.012;2022-10-16T19:11:44;11.10;99.90
20858;DHT22;10589;53.636;10.012;2022-10-16T19:14:12;11.00;99.90
20858;DHT22;10589;53.636;10.012;2022-10-16T19:16:38;11.00;99.90
20858;DHT22;10589;53.636;10.012;2022-10-16T19:19:06;11.00;99.90
20858;DHT22;10589;53.636;10.012;2022-10-16T19:21:34;10.90;99.90
20858;DHT22;10589;53.636;10.012;2022-10-16T19:24:01;10.80;99.90
20858;DHT22;10589;53.636;10.012;2022-10-16T19:26:29;10.80;99.90
20858;DHT22;10589;53.636;10.012;2022-10-16T19:28:56;10.70;99.90
20858;DHT22;10589;53.636;10.012;2022-10-16T19:31:25;10.70;99.90
20858;DHT22;10589;53.636;10.012;2022-10-16T19:33:55;10.60;99.90
20858;DHT22;10589;53.636;10.012;2022-10-16T19:36:27;10.50;99.90
20858;DHT22;10589;53.636;10.012;2022-10-16T19:38:55;10.50;99.90
20858;DHT22;10589;53.636;10.012;2022-10-16T19:41:22;10.40;99.90
20858;DHT22;10589;53.636;10.012;2022-10-16T19:43:48;10.40;99.90
20858;DHT22;10589;53.636;10.012;2022-10-16T19:46:16;10.40;99.90
20858;DHT22;10589;53.636;10.012;2022-10-16T19:48:43;10.40;99.90
20858;DHT22;10589;53.636;10.012;2022-10-16T19:51:17;10.50;99.90
20858;DHT22;10589;53.636;10.012;2022-10-16T19:53:44;10.50;99.90
20858;DHT22;10589;53.636;10.012;2022-10-16T19:56:18;10.50;99.90
20858;DHT22;10589;53.636;10.012;2022-10-16T19:58:46;10.60;99.90
20858;DHT22;10589;53.636;10.012;2022-10-16T20:01:13;10.60;99.90
20858;DHT22;10589;53.636;10.012;2022-10-16T20:03:42;10.70;99.90
20858;DHT22;10589;53.636;10.012;2022-10-16T20:06:08;10.70;99.90
20858;DHT22;10589;53.636;10.012;2022-10-16T20:08:35;10.70;99.90
20858;DHT22;10589;53.636;10.012;2022-10-16T20:11:02;10.70;99.90
20858;DHT22;10589;53.636;10.012;2022-10-16T20:13:28;10.70;99.90
20858;DHT22;10589;53.636;10.012;2022-10-16T20:15:54;10.70;99.90
20858;DHT22;10589;53.636;10.012;2022-10-16T20:18:20;10.70;99.90
20858;DHT22;10589;53.636;10.012;2022-10-16T20:20:47;10.70;99.90
20858;DHT22;10589;53.636;10.012;2022-10-16T20:23:16;10.70;99.90
20858;DHT22;10589;53.636;10.012;2022-10-16T20:25:42;10.80;99.90
20858;DHT22;10589;53.636;10.012;2022-10-16T20:28:12;10.80;99.90
20858;DHT22;10589;53.636;10.012;2022-10-16T20:30:40;10.70;99.90
20858;DHT22;10589;53.636;10.012;2022-10-16T20:33:06;10.70;99.90
20858;DHT22;10589;53.636;10.012;2022-10-16T20:35:41;10.70;99.90
20858;DHT22;10589;53.636;10.012;2022-10-16T20:38:08;10.70;99.90
20858;DHT22;10589;53.636;10.012;2022-10-16T20:40:35;10.70;99.90
20858;DHT22;10589;53.636;10.012;2022-10-16T20:43:01;10.70;99.90
20858;DHT22;10589;53.636;10.012;2022-10-16T20:45:27;10.70;99.90
20858;DHT22;10589;53.636;10.012;2022-10-16T20:47:53;10.70;99.90
20858;DHT22;10589;53.636;10.012;2022-10-16T20:50:19;10.70;99.90
20858;DHT22;10589;53.636;10.012;2022-10-16T20:52:45;10.70;99.90
20858;DHT22;10589;53.636;10.012;2022-10-16T20:55:11;10.70;99.90
20858;DHT22;10589;53.636;10.012;2022-10-16T20:57:36;10.70;99.90
20858;DHT22;10589;53.636;10.012;2022-10-16T21:00:04;10.70;99.90
20858;DHT22;10589;53.636;10.012;2022-10-16T21:02:30;10.70;99.90
20858;DHT22;10589;53.636;10.012;2022-10-16T21:04:55;10.70;99.90
20858;DHT22;10589;53.636;10.012;2022-10-16T21:07:21;10.70;99.90